Time;durP1;ratioP1;P1;durP2;ratioP2;P2;SDS_P1;SDS_P2;PMS_P1;PMS_P2;Temp;Humidity;BMP_temperature;BMP_pressure;BME280_temperature;BME280_humidity;BME280_pressure;Samples;Min_cycle;Max_cycle;Signal;HPM_P1;HPM_P2
2022/11/11 00:00:49;;;;;;;2.28;1.83;;;5.10;99.90;;;;;;468118;254;27364;-65
2022/11/11 00:02:50;;;;;;;2.40;2.20;;;5.00;99.90;;;;;;468098;254;27388;-67
2022/11/11 00:04:51;;;;;;;2.30;2.10;;;4.90;99.90;;;;;;468103;253;27483;-67
2022/11/11 00:06:52;;;;;;;4.45;2.65;;;4.80;99.90;;;;;;468134;254;27468;-65
2022/11/11 00:08:54;;;;;;;2.50;2.30;;;4.80;99.90;;;;;;468121;254;27391;-67
2022/11/11 00:10:55;;;;;;;3.55;2.30;;;4.90;99.90;;;;;;468101;254;27356;-66
2022/11/11 00:12:56;;;;;;;2.50;2.30;;;4.80;99.90;;;;;;468110;254;27515;-65
2022/11/11 00:14:57;;;;;;;2.70;2.50;;;4.90;99.90;;;;;;468115;254;27352;-66
2022/11/11 00:25:58;;;;;;;2.53;2.33;;;4.90;99.90;;;;;;468075;254;27410;-65
2022/11/11 00:28:00;;;;;;;2.85;2.60;;;4.90;99.90;;;;;;468095;254;27455;-65
2022/11/11 00:30:01;;;;;;;3.92;2.70;;;4.90;99.90;;;;;;468100;254;28097;-65
2022/11/11 00:34:22;;;;;;;3.25;2.85;;;4.80;99.90;;;;;;468092;254;27941;-65
2022/11/11 00:36:23;;;;;;;3.92;2.40;;;4.70;99.90;;;;;;468093;254;28015;-66
2022/11/11 00:40:45;;;;;;;2.85;2.65;;;4.70;99.90;;;;;;468082;254;27348;-65
2022/11/11 00:42:45;;;;;;;3.28;2.70;;;4.70;99.90;;;;;;468010;254;27510;-65
2022/11/11 00:44:46;;;;;;;2.58;2.37;;;4.70;99.90;;;;;;468108;254;27465;-67
2022/11/11 00:51:27;;;;;;;2.20;2.00;;;4.40;99.90;;;;;;468105;254;27407;-67
2022/11/11 00:53:28;;;;;;;2.30;2.10;;;4.40;99.90;;;;;;468133;254;27359;-66
2022/11/11 00:55:29;;;;;;;2.97;2.65;;;4.40;99.90;;;;;;468054;254;28031;-65
2022/11/11 00:57:30;;;;;;;2.45;2.30;;;4.30;99.90;;;;;;468096;254;27900;-66
2022/11/11 00:59:32;;;;;;;1.95;1.80;;;4.20;99.90;;;;;;468085;254;27865;-66
2022/11/11 01:01:33;;;;;;;2.40;2.20;;;4.20;99.90;;;;;;468074;254;27459;-68
2022/11/11 01:03:34;;;;;;;2.40;2.20;;;4.20;99.90;;;;;;468087;254;27356;-66
2022/11/11 01:05:35;;;;;;;2.67;2.47;;;4.20;99.90;;;;;;468152;254;27403;-66
2022/11/11 01:07:37;;;;;;;2.20;2.10;;;4.20;99.90;;;;;;468108;254;27374;-65
2022/11/11 01:09:38;;;;;;;2.37;2.17;;;4.20;99.90;;;;;;468127;254;27378;-66
2022/11/11 01:11:39;;;;;;;2.17;1.90;;;4.20;99.90;;;;;;468123;254;27384;-66
2022/11/11 01:13:40;;;;;;;2.35;2.10;;;4.20;99.90;;;;;;468133;254;27352;-66
2022/11/11 01:15:42;;;;;;;2.00;1.90;;;4.20;99.90;;;;;;468127;254;27492;-66
2022/11/11 01:17:43;;;;;;;2.15;1.98;;;4.30;99.90;;;;;;468083;254;27906;-65
2022/11/11 01:19:44;;;;;;;1.90;1.80;;;4.30;99.90;;;;;;468139;254;27892;-65
2022/11/11 01:21:45;;;;;;;2.00;1.90;;;4.30;99.90;;;;;;468115;254;27946;-67
2022/11/11 01:23:47;;;;;;;2.20;2.00;;;4.30;99.90;;;;;;468116;254;29010;-65
2022/11/11 01:25:48;;;;;;;1.98;1.87;;;4.30;99.90;;;;;;468098;254;27849;-65
2022/11/11 01:27:49;;;;;;;1.67;1.58;;;4.20;99.90;;;;;;468100;249;27339;-65
2022/11/11 01:29:50;;;;;;;1.65;1.50;;;4.30;99.90;;;;;;468162;254;27350;-66
2022/11/11 01:31:52;;;;;;;2.50;2.05;;;4.20;99.90;;;;;;468119;254;27378;-67
2022/11/11 01:33:53;;;;;;;1.80;1.70;;;4.20;99.90;;;;;;468113;254;27360;-66
2022/11/11 01:35:54;;;;;;;1.75;1.65;;;4.10;99.90;;;;;;468125;254;27382;-66
2022/11/11 01:37:55;;;;;;;1.80;1.70;;;4.10;99.90;;;;;;468093;254;27483;-65
2022/11/11 01:39:57;;;;;;;1.67;1.65;;;4.00;99.90;;;;;;468148;254;27387;-66
2022/11/11 01:41:58;;;;;;;1.70;1.60;;;4.00;99.90;;;;;;468112;254;27391;-66
2022/11/11 01:43:59;;;;;;;1.70;1.60;;;4.00;99.90;;;;;;468083;254;27351;-65
2022/11/11 01:46:02;;;;;;;1.95;1.85;;;4.00;99.90;;;;;;468109;254;27403;-65
2022/11/11 01:50:21;;;;;;;1.77;1.67;;;4.00;99.90;;;;;;468107;254;28760;-66
2022/11/11 01:52:23;;;;;;;1.70;1.60;;;4.10;99.90;;;;;;468071;254;27965;-65
2022/11/11 01:54:24;;;;;;;1.70;1.60;;;4.10;99.90;;;;;;468097;249;28611;-65
2022/11/11 01:56:25;;;;;;;1.80;1.70;;;4.10;99.90;;;;;;468114;254;27889;-66
2022/11/11 01:58:26;;;;;;;2.12;2.03;;;4.10;99.90;;;;;;468095;254;27407;-67
2022/11/11 02:00:28;;;;;;;1.60;1.50;;;4.10;99.90;;;;;;468095;254;27379;-65
2022/11/11 02:02:29;;;;;;;1.73;1.62;;;4.10;99.90;;;;;;468042;254;27506;-66
2022/11/11 02:06:50;;;;;;;1.90;1.75;;;4.10;99.90;;;;;;468071;254;27822;-65
2022/11/11 02:08:51;;;;;;;1.83;1.73;;;4.20;99.90;;;;;;468054;254;27501;-66
2022/11/11 02:10:52;;;;;;;1.90;1.80;;;4.20;99.90;;;;;;468056;254;27408;-65
2022/11/11 02:15:13;;;;;;;1.87;1.70;;;4.10;99.90;;;;;;468118;254;27418;-66
2022/11/11 02:17:15;;;;;;;1.90;1.80;;;4.00;99.90;;;;;;468064;254;27412;-66
2022/11/11 02:19:16;;;;;;;2.20;2.10;;;4.00;99.90;;;;;;468086;254;27505;-66
2022/11/11 02:21:17;;;;;;;2.47;1.90;;;3.90;99.90;;;;;;468131;253;27395;-66
2022/11/11 02:23:18;;;;;;;1.80;1.70;;;3.90;99.90;;;;;;468092;254;27359;-65
2022/11/11 02:25:20;;;;;;;1.60;1.50;;;3.90;99.90;;;;;;468066;254;27391;-65
2022/11/11 02:27:21;;;;;;;2.47;1.83;;;3.90;99.90;;;;;;468080;254;28360;-67
2022/11/11 02:29:22;;;;;;;2.20;2.10;;;3.90;99.90;;;;;;468112;254;27891;-66
2022/11/11 02:31:23;;;;;;;1.62;1.55;;;3.90;99.90;;;;;;468099;254;27874;-65
2022/11/11 02:33:25;;;;;;;1.70;1.60;;;3.90;99.90;;;;;;468099;254;29017;-65
2022/11/11 02:35:26;;;;;;;1.80;1.70;;;3.90;99.90;;;;;;468100;254;27379;-66
2022/11/11 02:37:27;;;;;;;1.77;1.67;;;3.90;99.90;;;;;;468091;254;27388;-65
2022/11/11 02:39:28;;;;;;;1.80;1.73;;;4.00;99.90;;;;;;468140;254;27441;-65
2022/11/11 02:43:49;;;;;;;1.48;1.45;;;3.90;99.90;;;;;;468079;254;27805;-64
2022/11/11 02:45:50;;;;;;;2.35;1.70;;;3.90;99.90;;;;;;468104;254;29033;-64
2022/11/11 02:47:51;;;;;;;1.50;1.50;;;3.90;99.90;;;;;;468096;254;27863;-67
2022/11/11 02:49:53;;;;;;;1.67;1.58;;;3.90;99.90;;;;;;468140;254;27462;-65
2022/11/11 02:51:54;;;;;;;2.20;2.10;;;3.90;99.90;;;;;;468102;254;27532;-65
2022/11/11 02:54:01;;;;;;;1.90;1.80;;;3.90;99.90;;;;;;468073;254;27348;-64
2022/11/11 02:56:00;;;;;;;1.80;1.70;;;4.00;99.90;;;;;;467913;253;27926;-67
2022/11/11 02:58:01;;;;;;;2.15;2.05;;;4.00;99.90;;;;;;468095;254;27324;-65
2022/11/11 03:00:02;;;;;;;1.60;1.50;;;4.00;99.90;;;;;;468108;254;27400;-64
2022/11/11 03:02:03;;;;;;;1.90;1.80;;;4.00;99.90;;;;;;468047;254;27415;-65
2022/11/11 03:04:05;;;;;;;2.00;1.90;;;4.00;99.90;;;;;;468063;254;27451;-65
2022/11/11 03:06:06;;;;;;;3.15;1.90;;;4.00;99.90;;;;;;468102;254;27391;-66
2022/11/11 03:08:07;;;;;;;1.77;1.67;;;4.10;99.90;;;;;;468074;254;27362;-65
2022/11/11 03:10:08;;;;;;;1.70;1.60;;;4.00;99.90;;;;;;468087;254;27392;-65
2022/11/11 03:12:10;;;;;;;1.80;1.70;;;4.00;99.90;;;;;;468066;254;27364;-64
2022/11/11 03:14:11;;;;;;;1.90;1.80;;;4.00;99.90;;;;;;468097;254;27356;-64
2022/11/11 03:17:38;;;;;;;1.90;1.80;;;4.00;99.90;;;;;;468089;254;27490;-66
2022/11/11 03:18:13;;;;;;;2.47;1.60;;;4.00;99.90;;;;;;466879;254;27356;-65
2022/11/11 03:22:35;;;;;;;1.90;1.80;;;4.00;99.90;;;;;;468093;254;27491;-66
2022/11/11 03:26:55;;;;;;;1.92;1.83;;;3.90;99.90;;;;;;468084;254;27427;-64
2022/11/11 03:28:57;;;;;;;1.83;1.73;;;3.90;99.90;;;;;;467979;254;27401;-64
2022/11/11 03:30:58;;;;;;;1.75;1.65;;;3.90;99.90;;;;;;467917;254;27352;-64
2022/11/11 03:32:59;;;;;;;1.80;1.70;;;3.90;99.90;;;;;;467807;254;27868;-65
2022/11/11 03:35:00;;;;;;;1.90;1.80;;;3.90;99.90;;;;;;467941;254;28122;-64
2022/11/11 03:39:21;;;;;;;1.98;1.77;;;3.90;99.90;;;;;;468064;254;27877;-64
2022/11/11 03:41:22;;;;;;;1.95;1.85;;;3.90;99.90;;;;;;468152;254;27974;-67
2022/11/11 03:43:24;;;;;;;2.00;1.90;;;3.80;99.90;;;;;;468099;254;27416;-64
2022/11/11 03:45:25;;;;;;;1.70;1.60;;;3.80;99.90;;;;;;468093;254;27387;-65
2022/11/11 03:47:26;;;;;;;1.80;1.70;;;3.80;99.90;;;;;;468075;254;27363;-65
2022/11/11 03:49:27;;;;;;;1.83;1.73;;;3.80;99.90;;;;;;468059;254;27480;-64
2022/11/11 03:51:30;;;;;;;1.70;1.50;;;3.80;99.90;;;;;;472672;248;27405;-67
2022/11/11 03:53:31;;;;;;;2.70;2.00;;;3.80;99.90;;;;;;478458;248;27547;-65
2022/11/11 03:55:32;;;;;;;1.80;1.70;;;3.80;99.90;;;;;;478402;248;27911;-64
2022/11/11 03:57:34;;;;;;;2.55;1.80;;;3.80;99.90;;;;;;478413;248;28027;-65
2022/11/11 03:59:35;;;;;;;2.00;1.90;;;3.80;99.90;;;;;;478416;248;28614;-66
2022/11/11 04:10:54;;;;;;;1.60;1.60;;;3.70;99.90;;;;;;478463;248;28064;-64
2022/11/11 04:17:34;;;;;;;1.65;1.55;;;3.70;99.90;;;;;;478472;248;27503;-65
2022/11/11 04:21:55;;;;;;;1.83;1.70;;;3.70;99.90;;;;;;478459;248;27538;-67
2022/11/11 04:23:57;;;;;;;2.70;2.15;;;3.80;99.90;;;;;;478447;248;27981;-64
2022/11/11 04:25:58;;;;;;;1.80;1.70;;;3.70;99.90;;;;;;478452;248;28156;-66
2022/11/11 04:30:19;;;;;;;1.80;1.70;;;3.70;99.90;;;;;;478419;243;27482;-64
2022/11/11 04:32:37;;;;;;;3.37;1.83;;;3.80;99.90;;;;;;478438;248;27660;-65
2022/11/11 04:34:36;;;;;;;2.00;1.90;;;3.70;99.90;;;;;;478282;248;27558;-65
2022/11/11 04:36:38;;;;;;;2.35;1.52;;;3.80;99.90;;;;;;478478;248;27621;-64
2022/11/11 04:41:05;;;;;;;1.70;1.60;;;3.80;99.90;;;;;;478434;248;27553;-65
2022/11/11 04:43:06;;;;;;;1.85;1.80;;;3.80;99.90;;;;;;478403;248;28699;-64
2022/11/11 04:47:27;;;;;;;1.50;1.50;;;3.80;99.90;;;;;;478460;248;27537;-65
2022/11/11 04:49:28;;;;;;;2.30;1.80;;;3.80;99.90;;;;;;478415;248;27510;-64
2022/11/11 04:52:25;;;;;;;1.50;1.40;;;3.80;99.90;;;;;;478436;248;27587;-64
2022/11/11 04:53:30;;;;;;;4.45;1.40;;;3.80;99.90;;;;;;477176;248;27955;-66
2022/11/11 04:57:51;;;;;;;1.37;1.35;;;3.80;99.90;;;;;;478447;248;28027;-67
2022/11/11 04:59:52;;;;;;;1.85;1.50;;;3.80;99.90;;;;;;478448;248;28064;-67
2022/11/11 05:04:13;;;;;;;1.83;1.73;;;3.70;99.90;;;;;;478421;248;28015;-65
2022/11/11 05:10:54;;;;;;;1.37;1.37;;;3.60;99.90;;;;;;478456;243;27503;-64
2022/11/11 05:21:19;;;;;;;1.60;1.50;;;3.60;99.90;;;;;;478432;248;27638;-64
2022/11/11 05:21:55;;;;;;;2.10;1.87;;;3.60;99.90;;;;;;478427;248;27607;-65
2022/11/11 05:26:16;;;;;;;1.98;1.87;;;3.50;99.90;;;;;;478462;248;27500;-64
2022/11/11 05:28:17;;;;;;;2.72;2.20;;;3.50;99.90;;;;;;478460;248;27646;-66
2022/11/11 05:30:19;;;;;;;2.05;1.95;;;3.60;99.90;;;;;;478357;248;27488;-64
2022/11/11 05:32:20;;;;;;;1.98;1.87;;;3.60;99.90;;;;;;478436;248;29177;-65
2022/11/11 05:34:21;;;;;;;1.90;1.80;;;3.60;99.90;;;;;;478431;248;28780;-66
2022/11/11 05:36:22;;;;;;;2.50;1.95;;;3.60;99.90;;;;;;478469;248;27896;-64
2022/11/11 05:38:24;;;;;;;1.95;1.85;;;3.60;99.90;;;;;;478469;248;27528;-66
2022/11/11 05:40:25;;;;;;;2.72;2.03;;;3.70;99.90;;;;;;478394;248;27489;-64
2022/11/11 05:42:26;;;;;;;1.90;1.80;;;3.70;99.90;;;;;;478441;248;28051;-65
2022/11/11 05:44:27;;;;;;;2.20;2.10;;;3.70;99.90;;;;;;486104;235;29117;-66
2022/11/11 05:46:29;;;;;;;2.53;2.33;;;3.70;99.90;;;;;;488051;242;29041;-65
2022/11/11 05:48:30;;;;;;;5.43;2.28;;;3.70;99.90;;;;;;488044;243;27475;-65
2022/11/11 05:50:31;;;;;;;2.20;2.10;;;3.70;99.90;;;;;;488001;243;27582;-65
2022/11/11 05:52:32;;;;;;;2.20;2.00;;;3.80;99.90;;;;;;488029;243;27482;-64
2022/11/11 05:54:34;;;;;;;2.20;2.10;;;3.80;99.90;;;;;;488044;243;27578;-66
2022/11/11 05:56:35;;;;;;;2.05;1.95;;;3.80;99.90;;;;;;488058;242;27450;-64
2022/11/11 05:58:36;;;;;;;3.55;2.05;;;3.80;99.90;;;;;;488026;243;27500;-65
2022/11/11 06:00:37;;;;;;;2.25;2.05;;;3.80;99.90;;;;;;488001;242;27458;-65
2022/11/11 06:02:39;;;;;;;1.90;1.80;;;3.80;99.90;;;;;;488042;242;27466;-65
2022/11/11 06:04:40;;;;;;;2.15;2.05;;;3.70;99.90;;;;;;488018;242;27497;-66
2022/11/11 06:06:41;;;;;;;3.50;2.10;;;3.80;99.90;;;;;;488050;242;27499;-64
2022/11/11 06:08:42;;;;;;;2.25;2.05;;;3.80;99.90;;;;;;488032;243;27997;-65
2022/11/11 06:10:44;;;;;;;1.95;1.85;;;3.70;99.90;;;;;;487990;242;28047;-65
2022/11/11 06:15:06;;;;;;;2.05;1.95;;;3.80;99.90;;;;;;487999;243;28037;-67
2022/11/11 06:17:07;;;;;;;2.67;2.40;;;3.80;99.90;;;;;;488050;242;27911;-65
2022/11/11 06:19:09;;;;;;;2.50;2.30;;;3.80;99.90;;;;;;488015;243;27497;-65
2022/11/11 06:21:10;;;;;;;2.10;2.00;;;3.70;99.90;;;;;;488010;243;27455;-65
2022/11/11 06:23:11;;;;;;;2.12;2.00;;;3.70;99.90;;;;;;488032;243;27490;-65
2022/11/11 06:27:32;;;;;;;2.55;2.40;;;3.60;99.90;;;;;;487952;243;27559;-64
2022/11/11 06:29:33;;;;;;;2.40;2.30;;;3.60;99.90;;;;;;487964;242;27497;-64
2022/11/11 06:31:34;;;;;;;2.50;2.30;;;3.60;99.90;;;;;;488052;242;28332;-67
2022/11/11 06:33:36;;;;;;;3.15;2.85;;;3.60;99.90;;;;;;488066;242;27898;-64
2022/11/11 06:35:37;;;;;;;2.25;2.15;;;3.60;99.90;;;;;;488003;243;27974;-65
2022/11/11 06:37:38;;;;;;;2.60;2.40;;;3.70;99.90;;;;;;488018;242;27902;-64
2022/11/11 06:39:39;;;;;;;3.97;2.60;;;3.70;99.90;;;;;;488002;242;27566;-64
2022/11/11 06:41:41;;;;;;;3.33;2.35;;;3.70;99.90;;;;;;488042;242;27482;-66
2022/11/11 06:43:42;;;;;;;2.17;2.08;;;3.70;99.90;;;;;;488053;242;27573;-63
2022/11/11 06:45:43;;;;;;;2.67;2.47;;;3.70;99.90;;;;;;488012;243;27526;-65
2022/11/11 06:47:45;;;;;;;2.83;2.20;;;3.70;99.90;;;;;;488027;243;27454;-63
2022/11/11 06:49:46;;;;;;;2.53;2.42;;;3.80;99.90;;;;;;488022;243;27589;-64
2022/11/11 06:51:47;;;;;;;2.20;2.10;;;3.80;99.90;;;;;;488064;242;27495;-65
2022/11/11 06:53:48;;;;;;;1.80;1.70;;;3.80;99.90;;;;;;488037;243;27572;-64
2022/11/11 06:55:50;;;;;;;2.55;2.35;;;3.80;99.90;;;;;;487991;243;27510;-65
2022/11/11 06:57:51;;;;;;;2.10;1.80;;;3.90;99.90;;;;;;488026;243;27451;-64
2022/11/11 06:59:52;;;;;;;2.65;2.10;;;3.90;99.90;;;;;;488021;242;27500;-64
2022/11/11 07:01:53;;;;;;;2.08;1.98;;;3.90;99.90;;;;;;488044;243;27509;-65
2022/11/11 07:03:55;;;;;;;2.00;1.90;;;3.80;99.90;;;;;;488045;242;27469;-66
2022/11/11 07:05:57;;;;;;;2.42;2.22;;;3.80;99.90;;;;;;488006;242;27505;-64
2022/11/11 07:07:57;;;;;;;2.10;2.00;;;3.80;99.90;;;;;;487993;243;27486;-64
2022/11/11 07:09:58;;;;;;;3.12;2.17;;;3.90;99.90;;;;;;488009;242;27475;-65
2022/11/11 07:12:00;;;;;;;2.33;2.22;;;3.90;99.90;;;;;;488043;242;27495;-65
2022/11/11 07:14:01;;;;;;;2.58;2.37;;;4.00;99.90;;;;;;485312;239;27387;-64
2022/11/11 07:16:02;;;;;;;2.72;2.20;;;4.00;99.90;;;;;;484981;245;27447;-64
2022/11/11 07:18:03;;;;;;;2.67;2.50;;;4.00;99.90;;;;;;484985;245;27850;-66
2022/11/11 07:20:05;;;;;;;2.70;2.60;;;4.10;99.90;;;;;;485024;245;27408;-64
2022/11/11 07:22:06;;;;;;;2.67;2.47;;;4.10;99.90;;;;;;485004;245;27892;-65
2022/11/11 07:24:07;;;;;;;2.00;1.90;;;4.20;99.90;;;;;;485006;245;27972;-64
2022/11/11 07:26:08;;;;;;;1.73;1.62;;;4.20;99.90;;;;;;484898;245;29113;-64
2022/11/11 07:28:10;;;;;;;2.05;1.92;;;4.20;99.90;;;;;;484976;245;28005;-67
2022/11/11 07:30:11;;;;;;;2.53;2.33;;;4.20;99.90;;;;;;485010;245;27477;-65
2022/11/11 07:32:12;;;;;;;2.00;1.90;;;4.20;99.90;;;;;;484974;245;27638;-65
2022/11/11 07:34:13;;;;;;;2.42;2.20;;;4.20;99.90;;;;;;484982;245;27482;-64
2022/11/11 07:36:15;;;;;;;2.10;2.00;;;4.20;99.90;;;;;;484997;245;27564;-64
2022/11/11 07:38:16;;;;;;;2.10;2.00;;;4.30;99.90;;;;;;484954;245;27435;-68
2022/11/11 07:40:17;;;;;;;2.00;1.90;;;4.30;99.90;;;;;;484994;245;27400;-64
2022/11/11 07:42:18;;;;;;;2.00;1.90;;;4.40;99.90;;;;;;484991;245;27503;-64
2022/11/11 07:44:20;;;;;;;2.10;2.00;;;4.40;99.90;;;;;;484999;245;27476;-64
2022/11/11 07:46:21;;;;;;;2.42;2.33;;;4.50;99.90;;;;;;484995;245;27479;-65
2022/11/11 07:48:22;;;;;;;2.12;2.03;;;4.50;99.90;;;;;;484977;245;27437;-66
2022/11/11 07:50:23;;;;;;;1.90;1.80;;;4.50;99.90;;;;;;497229;238;27766;-64
2022/11/11 07:52:25;;;;;;;2.20;2.10;;;4.60;99.90;;;;;;499171;238;27377;-64
2022/11/11 07:54:26;;;;;;;2.33;2.22;;;4.70;99.90;;;;;;499146;238;28572;-64
2022/11/11 07:56:27;;;;;;;2.20;2.10;;;4.80;99.90;;;;;;499187;238;27819;-64
2022/11/11 07:58:29;;;;;;;2.12;1.92;;;4.80;99.90;;;;;;499176;238;27476;-65
2022/11/11 08:00:30;;;;;;;2.08;1.98;;;4.80;99.90;;;;;;499192;238;27339;-65
2022/11/11 08:02:31;;;;;;;2.03;1.92;;;4.90;99.90;;;;;;499177;238;27902;-64
2022/11/11 08:04:32;;;;;;;2.03;1.92;;;4.90;99.90;;;;;;499138;238;28557;-64
2022/11/11 08:06:34;;;;;;;2.40;2.30;;;5.00;99.90;;;;;;499176;238;27824;-64
2022/11/11 08:08:35;;;;;;;2.30;2.20;;;5.00;99.90;;;;;;499138;238;27377;-65
2022/11/11 08:10:36;;;;;;;2.28;2.08;;;5.00;99.90;;;;;;499190;238;27342;-64
2022/11/11 08:14:57;;;;;;;1.98;1.87;;;5.30;99.90;;;;;;499165;238;27880;-67
2022/11/11 08:16:58;;;;;;;2.00;1.90;;;5.30;99.90;;;;;;486501;238;27805;-64
2022/11/11 08:18:59;;;;;;;1.80;1.70;;;5.30;99.90;;;;;;485009;245;27424;-65
2022/11/11 08:21:01;;;;;;;2.47;2.30;;;5.40;99.90;;;;;;484958;245;27396;-64
2022/11/11 08:23:03;;;;;;;2.47;2.37;;;5.50;99.90;;;;;;485005;245;27396;-64
2022/11/11 08:25:03;;;;;;;2.65;2.45;;;5.50;99.90;;;;;;484857;245;27923;-67
2022/11/11 08:27:04;;;;;;;2.80;2.60;;;5.70;99.90;;;;;;485024;245;27836;-64
2022/11/11 08:29:06;;;;;;;3.55;2.47;;;5.80;99.90;;;;;;485034;245;27531;-65
2022/11/11 08:31:08;;;;;;;3.35;2.78;;;6.00;99.90;;;;;;485009;245;27499;-66
2022/11/11 08:33:08;;;;;;;3.90;2.72;;;6.10;99.90;;;;;;485008;245;27513;-64
2022/11/11 08:35:09;;;;;;;2.58;2.40;;;6.30;99.90;;;;;;485057;245;27596;-67
2022/11/11 08:37:11;;;;;;;2.90;2.42;;;6.40;99.90;;;;;;485028;245;27499;-66
2022/11/11 08:39:12;;;;;;;2.87;2.67;;;6.60;99.90;;;;;;485025;245;27535;-65
2022/11/11 08:41:13;;;;;;;3.28;2.97;;;6.80;99.90;;;;;;485042;245;27443;-66
2022/11/11 08:43:14;;;;;;;2.87;2.50;;;6.80;99.90;;;;;;485042;245;27952;-67
2022/11/11 08:45:16;;;;;;;3.30;3.00;;;6.90;99.90;;;;;;484867;245;27446;-68
2022/11/11 08:47:19;;;;;;;3.10;2.80;;;7.00;99.90;;;;;;484429;245;27471;-68
2022/11/11 08:49:18;;;;;;;3.35;2.67;;;7.10;99.90;;;;;;484617;245;28802;-68
2022/11/11 08:51:19;;;;;;;3.20;2.90;;;7.20;99.90;;;;;;484618;245;27511;-67
2022/11/11 08:53:21;;;;;;;3.47;3.17;;;7.30;99.90;;;;;;484885;244;27498;-67
2022/11/11 08:55:22;;;;;;;3.53;3.22;;;7.30;99.90;;;;;;484895;245;27987;-68
2022/11/11 08:57:23;;;;;;;3.80;2.47;;;7.40;99.90;;;;;;484880;245;27495;-66
2022/11/11 08:59:24;;;;;;;2.70;2.50;;;7.50;99.90;;;;;;484851;245;28799;-67
2022/11/11 09:01:26;;;;;;;2.65;2.45;;;7.50;99.90;;;;;;485020;245;27689;-70
2022/11/11 09:03:27;;;;;;;2.60;2.40;;;7.60;99.90;;;;;;485044;245;27396;-67
2022/11/11 09:05:28;;;;;;;3.27;2.80;;;7.60;99.90;;;;;;485040;245;27478;-67
2022/11/11 09:07:29;;;;;;;2.67;2.47;;;7.70;99.90;;;;;;485045;245;27890;-67
2022/11/11 09:09:31;;;;;;;2.70;2.50;;;7.80;99.90;;;;;;485013;245;27780;-67
2022/11/11 09:11:35;;;;;;;3.17;2.87;;;7.90;99.90;;;;;;485067;245;28104;-70
2022/11/11 09:13:33;;;;;;;2.60;2.40;;;8.10;99.90;;;;;;484894;245;27762;-67
2022/11/11 09:15:35;;;;;;;5.10;2.93;;;8.20;99.90;;;;;;485010;245;27932;-67
2022/11/11 09:17:36;;;;;;;2.90;2.70;;;8.30;99.90;;;;;;485061;245;29679;-66
2022/11/11 09:19:37;;;;;;;3.73;2.13;;;8.30;99.90;;;;;;485093;245;29221;-67
2022/11/11 09:21:38;;;;;;;2.70;2.50;;;8.40;99.90;;;;;;485116;245;28489;-69
2022/11/11 09:23:40;;;;;;;2.80;2.50;;;8.40;99.90;;;;;;485845;241;28133;-68
2022/11/11 09:25:41;;;;;;;2.77;2.57;;;8.50;99.90;;;;;;491741;241;28319;-66
2022/11/11 09:27:42;;;;;;;2.70;2.50;;;8.50;99.90;;;;;;491816;241;27946;-67
2022/11/11 09:29:43;;;;;;;3.27;2.97;;;8.60;99.90;;;;;;491842;242;27921;-67
2022/11/11 09:31:45;;;;;;;3.20;2.20;;;8.60;99.90;;;;;;491863;241;27702;-69
2022/11/11 09:33:46;;;;;;;2.50;2.30;;;8.60;99.90;;;;;;491834;241;27819;-66
2022/11/11 09:35:47;;;;;;;2.10;2.00;;;8.60;99.90;;;;;;491793;241;27865;-67
2022/11/11 09:37:48;;;;;;;3.17;2.50;;;8.60;99.90;;;;;;491804;241;27703;-67
2022/11/11 09:39:50;;;;;;;2.10;2.00;;;8.60;99.90;;;;;;491855;241;27446;-67
2022/11/11 09:41:51;;;;;;;2.10;2.00;;;8.60;99.90;;;;;;491821;241;27824;-68
2022/11/11 09:43:53;;;;;;;2.47;2.27;;;8.60;99.90;;;;;;491844;241;28011;-66
2022/11/11 09:45:53;;;;;;;4.50;2.00;;;8.60;99.90;;;;;;491768;242;27933;-66
2022/11/11 09:47:55;;;;;;;2.60;1.70;;;8.60;99.90;;;;;;491810;241;28004;-66
2022/11/11 09:49:56;;;;;;;2.00;1.90;;;8.70;99.90;;;;;;491848;241;27624;-66
2022/11/11 09:51:57;;;;;;;2.17;2.00;;;8.60;99.90;;;;;;491858;241;27976;-68
2022/11/11 09:53:59;;;;;;;2.83;2.20;;;8.60;99.90;;;;;;491812;241;27828;-66
2022/11/11 09:56:00;;;;;;;4.50;2.23;;;8.70;99.90;;;;;;491797;241;27862;-68
2022/11/11 09:58:01;;;;;;;2.17;1.73;;;8.70;99.90;;;;;;491567;241;27701;-66
2022/11/11 10:00:02;;;;;;;5.43;2.60;;;8.70;99.90;;;;;;491820;241;27889;-66
2022/11/11 10:02:03;;;;;;;1.90;1.80;;;8.70;99.90;;;;;;491858;241;27952;-68
2022/11/11 10:04:05;;;;;;;2.57;2.37;;;8.80;99.90;;;;;;482687;241;27933;-67
2022/11/11 10:06:06;;;;;;;1.80;1.70;;;8.80;99.90;;;;;;467617;254;28042;-66
2022/11/11 10:08:07;;;;;;;2.10;2.00;;;8.80;99.90;;;;;;467720;246;28039;-69
2022/11/11 10:10:09;;;;;;;2.37;2.17;;;8.90;99.90;;;;;;475678;247;28543;-67
2022/11/11 10:12:10;;;;;;;4.90;2.43;;;8.90;99.90;;;;;;467692;254;28131;-67
2022/11/11 10:14:12;;;;;;;2.03;1.93;;;9.00;99.90;;;;;;467719;246;27942;-71
2022/11/11 10:16:13;;;;;;;3.00;2.10;;;9.00;99.90;;;;;;475750;247;28357;-69
2022/11/11 10:18:15;;;;;;;1.70;1.60;;;9.10;99.90;;;;;;467742;254;28144;-66
2022/11/11 10:20:16;;;;;;;2.67;2.20;;;9.10;99.90;;;;;;467771;247;28104;-68
2022/11/11 10:22:17;;;;;;;2.30;2.10;;;9.20;99.90;;;;;;475701;248;28000;-66
2022/11/11 10:24:18;;;;;;;2.30;2.10;;;9.20;99.90;;;;;;475951;249;28591;-66
2022/11/11 10:26:23;;;;;;;1.70;1.60;;;9.20;99.90;;;;;;477814;249;28595;-69
2022/11/11 10:28:21;;;;;;;3.17;2.90;;;9.30;99.90;;;;;;477406;249;28395;-66
2022/11/11 10:30:22;;;;;;;2.00;1.90;;;9.30;99.90;;;;;;477780;249;28711;-70
2022/11/11 10:32:24;;;;;;;2.37;2.00;;;9.30;99.90;;;;;;477789;249;28436;-68
2022/11/11 10:34:24;;;;;;;2.10;1.90;;;9.40;99.90;;;;;;477824;249;27816;-66
2022/11/11 10:36:26;;;;;;;2.70;2.17;;;9.40;99.90;;;;;;477569;249;27570;-66
2022/11/11 10:38:27;;;;;;;2.20;1.90;;;9.40;99.90;;;;;;477843;249;27780;-65
2022/11/11 10:40:28;;;;;;;4.00;2.20;;;9.40;99.90;;;;;;477845;249;28060;-67
2022/11/11 10:42:29;;;;;;;2.10;1.90;;;9.40;99.90;;;;;;477817;249;28070;-65
2022/11/11 10:44:31;;;;;;;2.50;2.30;;;9.50;99.90;;;;;;477695;249;27931;-66
2022/11/11 10:46:32;;;;;;;2.30;2.07;;;9.50;99.90;;;;;;477820;249;27577;-66
2022/11/11 10:48:33;;;;;;;2.10;1.90;;;9.60;99.90;;;;;;477825;249;27923;-66
2022/11/11 10:50:34;;;;;;;3.23;2.30;;;9.70;99.90;;;;;;477816;249;28126;-67
2022/11/11 10:52:36;;;;;;;1.80;1.70;;;9.80;99.90;;;;;;477821;249;27799;-65
2022/11/11 10:54:37;;;;;;;2.20;2.00;;;9.80;99.90;;;;;;477793;249;28037;-67
2022/11/11 10:56:38;;;;;;;2.07;1.93;;;9.90;99.90;;;;;;477772;249;28535;-65
2022/11/11 10:58:39;;;;;;;3.07;2.07;;;10.00;99.90;;;;;;477826;249;27787;-65
2022/11/11 11:00:41;;;;;;;2.03;1.93;;;10.10;99.90;;;;;;477824;249;28331;-68
2022/11/11 11:02:42;;;;;;;3.63;2.33;;;10.20;99.90;;;;;;477817;249;28118;-66
2022/11/11 11:04:43;;;;;;;2.00;1.90;;;10.20;99.90;;;;;;477787;249;28145;-65
2022/11/11 11:06:44;;;;;;;2.47;1.83;;;10.30;99.90;;;;;;477760;246;28489;-65
2022/11/11 11:08:46;;;;;;;1.80;1.70;;;10.40;99.90;;;;;;477831;249;27743;-65
2022/11/11 11:10:47;;;;;;;2.30;2.03;;;10.40;99.90;;;;;;477821;249;28042;-69
2022/11/11 11:12:48;;;;;;;2.73;1.87;;;10.50;99.90;;;;;;477704;249;27904;-66
2022/11/11 11:14:50;;;;;;;2.90;1.70;;;10.60;99.90;;;;;;477746;248;27871;-66
2022/11/11 11:16:51;;;;;;;2.70;1.90;;;10.70;99.90;;;;;;477693;249;29088;-67
2022/11/11 11:18:52;;;;;;;2.47;2.10;;;10.70;99.90;;;;;;477640;249;28301;-66
2022/11/11 11:20:53;;;;;;;1.70;1.60;;;10.90;99.90;;;;;;477609;246;28637;-67
2022/11/11 11:23:01;;;;;;;1.97;1.87;;;11.10;99.90;;;;;;477421;244;27876;-65
2022/11/11 11:25:02;;;;;;;2.43;1.93;;;11.20;99.90;;;;;;477180;249;28165;-66
2022/11/11 11:27:03;;;;;;;3.97;1.60;;;11.30;99.90;;;;;;477229;249;28283;-66
2022/11/11 11:29:05;;;;;;;2.60;1.90;;;11.40;99.90;;;;;;476963;249;28098;-66
2022/11/11 11:31:06;;;;;;;4.63;1.83;;;11.60;99.90;;;;;;477261;249;27701;-69
2022/11/11 11:33:07;;;;;;;2.90;1.90;;;11.60;99.90;;;;;;477224;249;28034;-67
2022/11/11 11:35:08;;;;;;;3.20;1.70;;;11.70;99.90;;;;;;477241;249;28273;-66
2022/11/11 11:37:09;;;;;;;2.50;1.90;;;11.80;99.90;;;;;;477316;245;28252;-71
2022/11/11 11:39:11;;;;;;;1.93;1.57;;;11.80;99.90;;;;;;468827;249;28721;-66
2022/11/11 11:41:12;;;;;;;5.77;1.73;;;11.90;99.90;;;;;;481435;247;28469;-68
2022/11/11 11:43:13;;;;;;;2.50;1.50;;;11.90;99.90;;;;;;481417;247;28518;-66
2022/11/11 11:45:14;;;;;;;1.90;1.80;;;12.00;99.90;;;;;;481424;247;28389;-67
2022/11/11 11:47:16;;;;;;;1.37;1.33;;;12.00;99.90;;;;;;481470;247;27945;-66
2022/11/11 11:49:17;;;;;;;1.53;1.43;;;12.10;99.90;;;;;;481419;247;27950;-66
2022/11/11 11:51:18;;;;;;;1.50;1.40;;;12.20;99.90;;;;;;481438;247;28064;-68
2022/11/11 11:53:19;;;;;;;1.70;1.60;;;12.30;99.90;;;;;;481370;247;28572;-66
2022/11/11 11:55:21;;;;;;;1.60;1.50;;;12.20;99.90;;;;;;481435;247;28693;-66
2022/11/11 11:57:22;;;;;;;1.50;1.40;;;12.20;99.90;;;;;;481455;247;28563;-69
2022/11/11 11:59:23;;;;;;;1.30;1.20;;;12.30;99.90;;;;;;481427;247;28137;-66
2022/11/11 12:01:24;;;;;;;1.50;1.40;;;12.30;99.90;;;;;;481436;247;28127;-67